Time;durP1;ratioP1;P1;durP2;ratioP2;P2;SDS_P1;SDS_P2;PMS_P1;PMS_P2;Temp;Humidity;BMP_temperature;BMP_pressure;BME280_temperature;BME280_humidity;BME280_pressure;Samples;Min_cycle;Max_cycle;Signal;HPM_P1;HPM_P2
2021/04/22 00:00:23;;;;;;;2.38;2.17;;;7.40;99.90;;;;;;5041192;28;20068;-71
2021/04/22 00:02:50;;;;;;;3.45;2.65;;;7.30;99.90;;;;;;5037444;28;20025;-71
2021/04/22 00:05:45;;;;;;;3.15;2.63;;;7.40;99.90;;;;;;5031725;28;20037;-71
2021/04/22 00:08:12;;;;;;;3.10;2.83;;;7.50;99.90;;;;;;5030645;28;20137;-71
2021/04/22 00:10:43;;;;;;;3.17;2.22;;;7.50;99.90;;;;;;5051800;28;20511;-72
2021/04/22 00:13:11;;;;;;;2.72;2.53;;;7.40;99.90;;;;;;5049760;28;20096;-72
2021/04/22 00:15:38;;;;;;;3.85;2.95;;;7.20;99.90;;;;;;5035730;28;20028;-71
2021/04/22 00:18:06;;;;;;;3.78;3.47;;;7.10;99.90;;;;;;5035538;28;20049;-71
2021/04/22 00:20:32;;;;;;;2.40;2.20;;;7.10;99.90;;;;;;5035395;28;20116;-71
2021/04/22 00:22:58;;;;;;;5.57;3.35;;;7.20;99.90;;;;;;5037071;28;20037;-71
2021/04/22 00:25:24;;;;;;;4.30;3.35;;;7.20;99.90;;;;;;5054304;28;20083;-71
2021/04/22 00:27:50;;;;;;;19.98;4.22;;;7.30;99.90;;;;;;5055087;28;20033;-71
2021/04/22 00:30:18;;;;;;;5.72;3.15;;;7.30;99.90;;;;;;5040165;28;20032;-71
2021/04/22 00:32:44;;;;;;;3.42;3.10;;;7.30;99.90;;;;;;5035224;28;20068;-71
2021/04/22 00:35:11;;;;;;;6.65;3.08;;;7.30;99.90;;;;;;5035069;28;20037;-71
2021/04/22 00:37:37;;;;;;;4.80;3.58;;;7.20;99.90;;;;;;5081253;28;20030;-71
2021/04/22 00:40:14;;;;;;;4.05;3.63;;;7.20;99.90;;;;;;5035526;28;20030;-71
2021/04/22 00:42:40;;;;;;;3.83;3.30;;;7.20;99.90;;;;;;5033270;28;20025;-71
2021/04/22 00:45:07;;;;;;;3.20;2.75;;;7.10;99.90;;;;;;5034691;28;20487;-71
2021/04/22 00:47:33;;;;;;;2.75;2.55;;;7.30;99.90;;;;;;5034848;28;20524;-71
2021/04/22 00:49:59;;;;;;;2.58;2.38;;;7.40;99.90;;;;;;5041463;28;20356;-71
2021/04/22 00:52:26;;;;;;;3.00;2.72;;;7.40;99.90;;;;;;5054560;28;20049;-71
2021/04/22 00:54:51;;;;;;;3.08;2.72;;;7.20;99.90;;;;;;5054147;28;20028;-71
2021/04/22 00:57:17;;;;;;;4.30;3.13;;;7.00;99.90;;;;;;5043379;28;20026;-71
2021/04/22 00:59:43;;;;;;;2.33;2.20;;;7.00;99.90;;;;;;5052208;28;20525;-71
2021/04/22 01:02:15;;;;;;;3.45;2.63;;;6.90;99.90;;;;;;5040575;28;20029;-71
2021/04/22 01:04:44;;;;;;;3.80;3.00;;;6.80;99.90;;;;;;5042088;28;20404;-71
2021/04/22 01:07:10;;;;;;;3.15;2.88;;;6.70;99.90;;;;;;5033832;28;20029;-71
2021/04/22 01:09:36;;;;;;;3.08;2.85;;;6.80;99.90;;;;;;5034091;28;20506;-71
2021/04/22 01:12:03;;;;;;;2.78;2.58;;;6.60;99.90;;;;;;5033763;28;20029;-71
2021/04/22 01:14:29;;;;;;;3.50;2.90;;;6.60;99.90;;;;;;5033590;28;20021;-71
2021/04/22 01:16:55;;;;;;;3.60;2.60;;;6.50;99.90;;;;;;5034067;28;20501;-71
2021/04/22 01:19:22;;;;;;;4.30;2.63;;;6.50;99.90;;;;;;5034331;28;20038;-71
2021/04/22 01:21:49;;;;;;;3.38;3.00;;;6.60;99.90;;;;;;5033006;28;20030;-71
2021/04/22 01:24:14;;;;;;;3.70;2.80;;;6.50;99.90;;;;;;5033387;28;20029;-71
2021/04/22 01:26:40;;;;;;;4.65;2.88;;;6.50;99.90;;;;;;5033919;28;20040;-71
2021/04/22 01:29:06;;;;;;;3.17;2.90;;;6.20;99.90;;;;;;5034306;28;20025;-71
2021/04/22 01:31:32;;;;;;;2.78;2.58;;;6.20;99.90;;;;;;5041122;28;20032;-71
2021/04/22 01:34:07;;;;;;;3.92;3.35;;;6.30;99.90;;;;;;5036382;28;20033;-71
2021/04/22 01:36:35;;;;;;;4.00;3.53;;;6.40;99.90;;;;;;5033870;28;20388;-71
2021/04/22 01:39:03;;;;;;;5.85;4.07;;;6.50;99.90;;;;;;5035985;28;20520;-71
2021/04/22 01:41:29;;;;;;;3.63;3.33;;;6.70;99.90;;;;;;5040641;28;20068;-71
2021/04/22 01:43:55;;;;;;;4.03;3.40;;;6.80;99.90;;;;;;5033283;28;20053;-71
2021/04/22 01:46:22;;;;;;;3.60;3.30;;;6.90;99.90;;;;;;5033501;28;20072;-71
2021/04/22 01:48:47;;;;;;;3.90;3.50;;;6.80;99.90;;;;;;5052689;28;20029;-71
2021/04/22 01:51:13;;;;;;;2.92;2.63;;;6.60;99.90;;;;;;5043118;28;20528;-71
2021/04/22 01:53:39;;;;;;;7.63;3.67;;;6.50;99.90;;;;;;5033008;28;20487;-71
2021/04/22 01:56:06;;;;;;;3.95;3.65;;;6.10;99.90;;;;;;5033442;28;20029;-71
2021/04/22 01:58:31;;;;;;;4.43;3.78;;;6.20;99.90;;;;;;5033591;28;20060;-71
2021/04/22 02:00:59;;;;;;;6.47;4.07;;;6.00;99.90;;;;;;5032453;28;20076;-71
2021/04/22 02:03:28;;;;;;;3.85;3.33;;;6.00;99.90;;;;;;5033663;28;20029;-71
2021/04/22 02:05:55;;;;;;;4.35;3.35;;;6.10;99.90;;;;;;5034874;28;20116;-71
2021/04/22 02:08:21;;;;;;;6.50;3.90;;;5.90;99.90;;;;;;5032951;28;20029;-71
2021/04/22 02:10:47;;;;;;;4.45;3.47;;;5.80;99.90;;;;;;5032806;28;20514;-71
2021/04/22 02:13:15;;;;;;;4.25;3.70;;;5.80;99.90;;;;;;5033017;28;20029;-71
2021/04/22 02:15:41;;;;;;;9.95;3.95;;;5.90;99.90;;;;;;5032796;28;20028;-71
2021/04/22 02:18:07;;;;;;;3.60;3.30;;;6.10;99.90;;;;;;5032977;28;20422;-71
2021/04/22 02:20:33;;;;;;;3.95;3.45;;;6.30;99.90;;;;;;5032895;28;20531;-71
2021/04/22 02:22:59;;;;;;;4.75;3.47;;;6.30;99.90;;;;;;5041267;28;20103;-71
2021/04/22 02:25:27;;;;;;;3.55;3.10;;;6.20;99.90;;;;;;5031782;28;20068;-71
2021/04/22 02:27:53;;;;;;;4.50;3.15;;;5.80;99.90;;;;;;5033231;28;20364;-71
2021/04/22 02:30:32;;;;;;;3.63;3.28;;;5.70;99.90;;;;;;5032578;28;20379;-71
2021/04/22 02:32:59;;;;;;;3.83;3.50;;;5.60;99.90;;;;;;5033000;28;20040;-71
2021/04/22 02:35:29;;;;;;;3.90;3.60;;;5.50;99.90;;;;;;5032898;28;20048;-71
2021/04/22 02:37:56;;;;;;;3.47;3.10;;;5.50;99.90;;;;;;5032865;28;20026;-71
2021/04/22 02:40:25;;;;;;;5.82;4.47;;;5.40;99.90;;;;;;5032382;28;20033;-71
2021/04/22 02:42:52;;;;;;;4.57;4.15;;;5.40;99.90;;;;;;5032752;28;20025;-71
2021/04/22 02:45:21;;;;;;;4.10;3.80;;;5.20;99.90;;;;;;5032933;28;20060;-71
2021/04/22 02:47:47;;;;;;;6.77;3.80;;;5.20;99.90;;;;;;5032418;28;20376;-71
2021/04/22 02:50:18;;;;;;;4.30;3.95;;;5.30;99.90;;;;;;5032412;28;20041;-71
2021/04/22 02:52:44;;;;;;;5.40;4.90;;;5.30;99.90;;;;;;5032616;28;20104;-71
2021/04/22 02:55:10;;;;;;;5.45;4.25;;;5.50;99.90;;;;;;5030734;28;20125;-71
2021/04/22 02:57:36;;;;;;;4.45;4.05;;;5.60;99.90;;;;;;5032599;28;20024;-71
2021/04/22 03:00:08;;;;;;;7.57;4.20;;;5.70;99.90;;;;;;5031595;28;20068;-71
2021/04/22 03:02:34;;;;;;;3.80;3.47;;;5.70;99.90;;;;;;5036977;28;20032;-71
2021/04/22 03:05:00;;;;;;;4.00;3.60;;;5.80;99.90;;;;;;5034066;28;20034;-71
2021/04/22 03:07:25;;;;;;;4.45;4.05;;;5.60;99.90;;;;;;5032579;28;20034;-71
2021/04/22 03:09:51;;;;;;;4.05;3.67;;;5.40;99.90;;;;;;5032028;28;20082;-71
2021/04/22 03:12:17;;;;;;;4.18;3.72;;;5.20;99.90;;;;;;5032413;28;20021;-71
2021/04/22 03:14:43;;;;;;;4.60;4.20;;;5.10;99.90;;;;;;5032440;28;20112;-71
2021/04/22 03:17:09;;;;;;;6.65;4.28;;;5.20;99.90;;;;;;5033280;28;20034;-71
2021/04/22 03:19:34;;;;;;;4.45;4.05;;;5.30;99.90;;;;;;5045787;28;20068;-71
2021/04/22 03:22:00;;;;;;;4.95;4.55;;;5.10;99.90;;;;;;5031612;28;20037;-71
2021/04/22 03:24:26;;;;;;;4.72;4.13;;;5.00;99.90;;;;;;5031848;28;20031;-71
2021/04/22 03:26:52;;;;;;;4.68;4.20;;;5.10;99.90;;;;;;5062786;28;20071;-71
2021/04/22 03:29:18;;;;;;;3.72;3.42;;;5.40;99.90;;;;;;5031319;28;20522;-71
2021/04/22 03:31:44;;;;;;;5.65;3.75;;;5.50;99.90;;;;;;5032191;28;20034;-71
2021/04/22 03:34:09;;;;;;;3.30;3.00;;;5.70;99.90;;;;;;5039716;28;20025;-71
2021/04/22 03:36:35;;;;;;;3.30;3.00;;;5.80;99.90;;;;;;5030319;28;20442;-71
2021/04/22 03:39:02;;;;;;;3.97;3.58;;;5.70;99.90;;;;;;5031435;28;20388;-71
2021/04/22 03:41:28;;;;;;;4.25;3.80;;;5.60;99.90;;;;;;5032018;28;20029;-71
2021/04/22 03:43:54;;;;;;;5.13;3.78;;;5.40;99.90;;;;;;5030821;28;20092;-71
2021/04/22 03:46:19;;;;;;;5.15;4.43;;;5.00;99.90;;;;;;5032097;28;20083;-71
2021/04/22 03:48:45;;;;;;;4.45;4.05;;;4.80;99.90;;;;;;5034692;28;20491;-71
2021/04/22 03:51:11;;;;;;;4.68;4.28;;;4.80;99.90;;;;;;5038667;28;20320;-71
2021/04/22 03:53:37;;;;;;;4.70;4.03;;;4.70;99.90;;;;;;5036049;28;20024;-71
2021/04/22 03:56:03;;;;;;;5.50;5.00;;;4.90;99.90;;;;;;5035963;28;20500;-71
2021/04/22 03:58:28;;;;;;;7.60;4.38;;;4.70;99.90;;;;;;5035867;28;20549;-71
2021/04/22 04:00:54;;;;;;;4.20;3.88;;;4.60;99.90;;;;;;5035528;28;20053;-71
2021/04/22 04:03:20;;;;;;;4.80;4.30;;;4.40;99.90;;;;;;5035417;28;20056;-71
2021/04/22 04:05:45;;;;;;;4.65;4.18;;;4.30;99.90;;;;;;5035332;28;20026;-71
2021/04/22 04:08:12;;;;;;;11.57;5.32;;;4.40;99.90;;;;;;5035109;28;20030;-71
2021/04/22 04:10:38;;;;;;;12.45;4.85;;;4.40;99.90;;;;;;5035217;28;20036;-71
2021/04/22 04:13:03;;;;;;;24.80;5.47;;;4.40;99.90;;;;;;5035324;28;20021;-71
2021/04/22 04:15:29;;;;;;;46.75;6.05;;;4.20;99.90;;;;;;5035470;28;20088;-71
2021/04/22 04:17:55;;;;;;;26.45;5.70;;;4.20;99.90;;;;;;5035464;28;20140;-71
2021/04/22 04:20:21;;;;;;;26.13;5.70;;;4.30;99.90;;;;;;5035551;28;20037;-71
2021/04/22 04:22:47;;;;;;;33.40;6.05;;;4.50;99.90;;;;;;5055558;28;20107;-71
2021/04/22 04:25:14;;;;;;;90.15;7.70;;;4.50;99.90;;;;;;5054994;28;20392;-71
2021/04/22 04:27:40;;;;;;;68.55;7.30;;;4.60;99.90;;;;;;5042508;28;20036;-71
2021/04/22 04:30:08;;;;;;;76.97;7.03;;;4.60;99.90;;;;;;5045133;28;20018;-71
2021/04/22 04:32:34;;;;;;;49.72;6.25;;;4.40;99.90;;;;;;5034935;28;20485;-71
2021/04/22 04:34:59;;;;;;;75.20;6.40;;;4.50;99.90;;;;;;5037506;28;20129;-71
2021/04/22 04:37:25;;;;;;;96.65;6.50;;;4.40;99.90;;;;;;5045817;28;20498;-71
2021/04/22 04:39:51;;;;;;;67.88;6.47;;;3.90;99.90;;;;;;5034230;28;20064;-71
2021/04/22 04:42:18;;;;;;;41.03;5.05;;;3.90;99.90;;;;;;5038051;28;20059;-70
2021/04/22 04:44:44;;;;;;;31.13;5.40;;;4.10;99.90;;;;;;5034680;28;20038;-71
2021/04/22 04:47:09;;;;;;;48.28;5.53;;;4.30;99.90;;;;;;5034881;28;20033;-71
2021/04/22 04:49:35;;;;;;;49.20;6.20;;;4.10;99.90;;;;;;5034571;28;20028;-71
2021/04/22 04:52:01;;;;;;;34.35;5.15;;;4.10;99.90;;;;;;5036060;28;20029;-71
2021/04/22 04:54:27;;;;;;;26.98;5.05;;;4.20;99.90;;;;;;5034101;28;20482;-71
2021/04/22 04:56:53;;;;;;;12.57;4.38;;;4.10;99.90;;;;;;5034859;28;20113;-71
2021/04/22 04:59:19;;;;;;;5.00;4.60;;;4.10;99.90;;;;;;5034506;28;20040;-71
2021/04/22 05:01:44;;;;;;;4.38;3.97;;;4.10;99.90;;;;;;5045035;28;20039;-71
2021/04/22 05:04:10;;;;;;;14.73;3.60;;;4.00;99.90;;;;;;5041586;28;20065;-71
2021/04/22 05:06:37;;;;;;;13.32;4.22;;;4.00;99.90;;;;;;5045500;28;20029;-71
2021/04/22 05:09:03;;;;;;;18.50;3.45;;;4.00;99.90;;;;;;5037032;28;20038;-71
2021/04/22 05:11:29;;;;;;;26.70;5.13;;;4.00;99.90;;;;;;5041907;28;20589;-71
2021/04/22 05:13:55;;;;;;;14.88;3.78;;;3.90;99.90;;;;;;5038077;28;20025;-71
2021/04/22 05:16:21;;;;;;;11.35;3.95;;;3.80;99.90;;;;;;5040994;28;20025;-71
2021/04/22 05:18:46;;;;;;;31.38;4.57;;;3.90;99.90;;;;;;5045966;28;20028;-70
2021/04/22 05:21:12;;;;;;;31.90;4.85;;;3.80;99.90;;;;;;5042053;28;20394;-71
2021/04/22 05:23:38;;;;;;;46.03;5.65;;;3.70;99.90;;;;;;5042703;28;20051;-71
2021/04/22 05:26:04;;;;;;;16.55;4.25;;;3.80;99.90;;;;;;5038156;28;20108;-71
2021/04/22 05:28:30;;;;;;;3.55;3.25;;;3.70;99.90;;;;;;5043115;28;20039;-71
2021/04/22 05:30:55;;;;;;;3.30;3.00;;;3.90;99.90;;;;;;5032520;28;20033;-71
2021/04/22 05:33:21;;;;;;;7.22;3.28;;;4.20;99.90;;;;;;5033748;28;20033;-71
2021/04/22 05:35:47;;;;;;;28.52;5.18;;;4.30;99.90;;;;;;5022679;28;20064;-70
2021/04/22 05:38:13;;;;;;;20.17;4.50;;;4.40;99.90;;;;;;5032816;28;20079;-71
2021/04/22 05:40:39;;;;;;;6.82;3.75;;;4.20;99.90;;;;;;5032349;28;20033;-70
2021/04/22 05:43:08;;;;;;;4.95;3.65;;;4.20;99.90;;;;;;5033817;28;20033;-71
2021/04/22 05:45:38;;;;;;;31.63;5.10;;;4.40;99.90;;;;;;5035127;28;20047;-70
2021/04/22 05:48:05;;;;;;;10.45;4.05;;;4.40;99.90;;;;;;5038779;28;20391;-70
2021/04/22 05:50:31;;;;;;;22.45;4.93;;;4.30;99.90;;;;;;5032971;28;20514;-70
2021/04/22 05:52:57;;;;;;;14.85;4.30;;;4.30;99.90;;;;;;5033155;28;20116;-70
2021/04/22 05:55:23;;;;;;;4.25;3.95;;;4.30;99.90;;;;;;5033650;28;20108;-71
2021/04/22 05:57:49;;;;;;;5.82;4.18;;;4.60;99.90;;;;;;5033075;28;20030;-70
2021/04/22 06:00:18;;;;;;;5.70;4.43;;;4.60;99.90;;;;;;5039057;28;20075;-70
2021/04/22 06:02:44;;;;;;;7.53;4.78;;;4.70;99.90;;;;;;5033305;28;20036;-70
2021/04/22 06:05:10;;;;;;;28.20;4.88;;;4.70;99.90;;;;;;5033373;28;20040;-71
2021/04/22 06:07:36;;;;;;;8.02;4.80;;;4.50;99.90;;;;;;5029734;28;20029;-70
2021/04/22 06:10:04;;;;;;;7.63;4.95;;;4.70;99.90;;;;;;5031465;28;20054;-71
2021/04/22 06:12:30;;;;;;;6.55;4.65;;;4.90;99.90;;;;;;5034792;28;20059;-71
2021/04/22 06:14:56;;;;;;;5.60;4.97;;;5.00;99.90;;;;;;5035258;28;20386;-71
2021/04/22 06:17:22;;;;;;;7.00;5.47;;;5.10;99.90;;;;;;5032798;28;20033;-70
2021/04/22 06:19:48;;;;;;;8.02;6.20;;;5.30;99.90;;;;;;5041446;28;20360;-70
2021/04/22 06:22:14;;;;;;;8.60;6.60;;;5.30;99.90;;;;;;5053927;28;20032;-70
2021/04/22 06:24:39;;;;;;;7.10;5.88;;;5.50;99.90;;;;;;5053671;28;20025;-70
2021/04/22 06:27:05;;;;;;;5.90;5.30;;;5.60;99.90;;;;;;5052725;28;20064;-70
2021/04/22 06:29:31;;;;;;;7.25;5.63;;;5.50;99.90;;;;;;5052981;28;20588;-70
2021/04/22 06:31:57;;;;;;;6.82;6.22;;;5.80;99.90;;;;;;5052509;28;20051;-70
2021/04/22 06:34:23;;;;;;;8.30;5.15;;;6.00;99.90;;;;;;5052754;28;20049;-70
2021/04/22 06:36:49;;;;;;;5.80;5.25;;;6.10;99.90;;;;;;5052719;28;20029;-70
2021/04/22 06:39:16;;;;;;;12.20;5.63;;;6.30;99.90;;;;;;5052831;28;20032;-70
2021/04/22 06:41:42;;;;;;;5.18;4.75;;;6.50;99.90;;;;;;5052702;28;20035;-72
2021/04/22 06:44:07;;;;;;;6.03;4.03;;;6.90;99.90;;;;;;5052533;28;20066;-70
2021/04/22 06:46:34;;;;;;;3.58;3.28;;;7.30;99.90;;;;;;5052157;28;20021;-70
2021/04/22 06:49:00;;;;;;;2.30;2.10;;;7.80;99.90;;;;;;5052557;28;20032;-70
2021/04/22 06:51:26;;;;;;;2.20;2.00;;;8.30;99.90;;;;;;5052734;28;20048;-71
2021/04/22 06:53:52;;;;;;;1.67;1.58;;;9.00;99.90;;;;;;5052422;28;20021;-70
2021/04/22 06:56:18;;;;;;;1.90;1.80;;;9.30;99.90;;;;;;5052475;28;20025;-70
2021/04/22 06:58:44;;;;;;;1.50;1.40;;;9.40;99.90;;;;;;5052347;28;20027;-70
2021/04/22 07:01:09;;;;;;;2.75;1.75;;;9.60;99.90;;;;;;5051951;28;20453;-71
2021/04/22 07:03:35;;;;;;;2.80;1.73;;;9.60;99.90;;;;;;5052535;28;20025;-70
2021/04/22 07:06:01;;;;;;;1.95;1.75;;;9.70;99.90;;;;;;5052226;28;20037;-71
2021/04/22 07:08:27;;;;;;;1.98;1.70;;;9.90;99.90;;;;;;5052169;28;20474;-71
2021/04/22 07:10:52;;;;;;;1.67;1.58;;;10.00;99.90;;;;;;5050353;28;20025;-71
2021/04/22 07:13:18;;;;;;;1.40;1.30;;;10.10;99.90;;;;;;5032454;28;20459;-71
2021/04/22 07:15:44;;;;;;;23.08;3.30;;;10.20;99.90;;;;;;5031949;28;20021;-71
2021/04/22 07:18:11;;;;;;;1.63;1.50;;;10.20;99.90;;;;;;5032266;28;20380;-71
2021/04/22 07:20:37;;;;;;;1.60;1.50;;;10.40;99.90;;;;;;5032411;28;20026;-71
2021/04/22 07:23:04;;;;;;;2.47;1.48;;;10.50;99.90;;;;;;5031442;28;20022;-71
2021/04/22 07:25:33;;;;;;;2.42;1.58;;;10.60;99.90;;;;;;5032272;28;20022;-70
2021/04/22 07:28:00;;;;;;;3.07;1.30;;;10.70;99.90;;;;;;5031995;28;20025;-71
2021/04/22 07:30:27;;;;;;;1.50;1.40;;;10.90;99.90;;;;;;5032014;28;20364;-71
2021/04/22 07:32:53;;;;;;;2.08;1.50;;;11.10;99.90;;;;;;5032032;28;20075;-71
2021/04/22 07:35:19;;;;;;;1.83;1.65;;;11.20;99.90;;;;;;5032324;28;20021;-71
2021/04/22 07:37:47;;;;;;;1.45;1.35;;;11.40;99.90;;;;;;5032192;28;20026;-70
2021/04/22 07:40:20;;;;;;;1.90;1.60;;;11.50;99.90;;;;;;5032249;28;20454;-71
2021/04/22 07:42:46;;;;;;;15.60;2.15;;;11.50;99.90;;;;;;5032191;28;20029;-71
2021/04/22 07:45:14;;;;;;;1.55;1.42;;;11.60;99.90;;;;;;5031678;28;20498;-70
2021/04/22 07:47:40;;;;;;;1.42;1.33;;;11.80;99.90;;;;;;5030803;28;20061;-71
2021/04/22 07:50:09;;;;;;;1.40;1.30;;;11.90;99.90;;;;;;5031993;28;20036;-71
2021/04/22 07:52:35;;;;;;;1.50;1.40;;;11.90;99.90;;;;;;5032133;28;20029;-71
2021/04/22 07:55:03;;;;;;;2.50;1.13;;;12.10;99.90;;;;;;5031935;28;20025;-71
2021/04/22 07:57:28;;;;;;;1.63;1.52;;;12.30;99.90;;;;;;5032093;28;20041;-71
2021/04/22 07:59:54;;;;;;;1.30;1.20;;;12.30;99.90;;;;;;5031419;28;20049;-71
2021/04/22 08:02:20;;;;;;;1.63;1.30;;;12.40;99.90;;;;;;5031952;28;20029;-71
2021/04/22 08:04:46;;;;;;;1.20;1.00;;;12.50;99.90;;;;;;5032049;28;20437;-71
2021/04/22 08:07:11;;;;;;;1.13;1.00;;;12.70;99.90;;;;;;5031651;28;20502;-71
2021/04/22 08:09:37;;;;;;;1.20;1.10;;;12.80;99.90;;;;;;5031826;28;20101;-71
2021/04/22 08:12:05;;;;;;;2.17;1.38;;;13.00;99.90;;;;;;5031488;28;20460;-71
2021/04/22 08:14:32;;;;;;;1.55;1.25;;;13.20;99.90;;;;;;5031885;28;20204;-71
2021/04/22 08:16:58;;;;;;;1.95;1.15;;;13.30;99.90;;;;;;5031856;28;20037;-71
2021/04/22 08:19:24;;;;;;;1.25;1.17;;;13.30;99.90;;;;;;5031723;28;20032;-71
2021/04/22 08:21:49;;;;;;;1.75;1.00;;;13.50;99.90;;;;;;5031675;28;20037;-71
2021/04/22 08:24:15;;;;;;;1.17;1.10;;;13.70;99.90;;;;;;5031650;28;20032;-71
2021/04/22 08:26:42;;;;;;;16.25;2.35;;;13.90;99.90;;;;;;5031488;28;20033;-71
2021/04/22 08:29:08;;;;;;;3.47;1.40;;;13.90;99.90;;;;;;5031570;28;20025;-71
2021/04/22 08:31:34;;;;;;;7.20;1.23;;;14.20;99.90;;;;;;5031740;28;20029;-71
2021/04/22 08:34:07;;;;;;;1.83;1.40;;;14.30;99.90;;;;;;5032953;28;20052;-71
2021/04/22 08:36:33;;;;;;;0.95;0.93;;;14.40;99.90;;;;;;5035164;28;20018;-71
2021/04/22 08:38:59;;;;;;;1.50;0.93;;;14.50;99.90;;;;;;5033738;28;20483;-71
2021/04/22 08:41:25;;;;;;;1.55;1.20;;;15.00;99.90;;;;;;5034826;28;20442;-71
2021/04/22 08:43:51;;;;;;;7.68;3.17;;;15.20;99.90;;;;;;5034969;28;20033;-71
2021/04/22 08:46:17;;;;;;;1.35;1.25;;;15.40;98.80;;;;;;5034777;28;20036;-71
2021/04/22 08:48:44;;;;;;;2.33;1.30;;;15.50;98.00;;;;;;5035092;28;20107;-71
2021/04/22 08:51:12;;;;;;;4.07;1.10;;;15.90;97.80;;;;;;5034742;28;20030;-71
2021/04/22 08:53:40;;;;;;;1.02;0.93;;;15.60;95.20;;;;;;5034784;28;20029;-71
2021/04/22 08:56:08;;;;;;;2.05;0.90;;;15.70;95.90;;;;;;5034442;28;20476;-71
2021/04/22 08:58:34;;;;;;;1.20;1.10;;;15.90;95.70;;;;;;5034717;28;20037;-71
2021/04/22 09:01:08;;;;;;;2.03;1.30;;;16.20;94.80;;;;;;5034614;28;20049;-71
2021/04/22 09:03:34;;;;;;;2.05;1.20;;;16.30;93.80;;;;;;5034538;28;20030;-71
2021/04/22 09:06:00;;;;;;;1.98;1.10;;;16.60;93.40;;;;;;5034699;28;20034;-71
2021/04/22 09:08:44;;;;;;;0.95;0.93;;;16.80;93.20;;;;;;5034364;28;20037;-71
2021/04/22 09:11:13;;;;;;;1.15;0.98;;;17.10;90.50;;;;;;5034018;28;20036;-71
2021/04/22 09:13:39;;;;;;;1.48;1.38;;;17.20;88.80;;;;;;5034605;28;20032;-71
2021/04/22 09:16:14;;;;;;;5.55;1.00;;;17.30;87.70;;;;;;5034347;28;20394;-71
2021/04/22 09:18:51;;;;;;;2.00;1.40;;;17.50;90.00;;;;;;5034451;28;20057;-71
2021/04/22 09:21:23;;;;;;;4.47;1.40;;;17.90;87.10;;;;;;5034449;28;20030;-71
2021/04/22 09:24:13;;;;;;;1.75;0.93;;;18.20;87.10;;;;;;5034300;28;20044;-71
2021/04/22 09:26:42;;;;;;;1.17;1.08;;;18.60;80.40;;;;;;5032684;28;20025;-71
2021/04/22 09:29:11;;;;;;;2.65;1.60;;;20.50;73.60;;;;;;5034035;28;20033;-71
2021/04/22 09:31:37;;;;;;;10.73;1.35;;;22.50;65.00;;;;;;5034083;28;20103;-71
2021/04/22 09:34:08;;;;;;;1.85;1.55;;;21.10;64.50;;;;;;5034213;28;20026;-71
2021/04/22 09:36:46;;;;;;;4.78;1.60;;;23.90;60.70;;;;;;5033923;28;20028;-71
2021/04/22 09:39:15;;;;;;;1.92;1.58;;;25.40;55.00;;;;;;5033578;28;20502;-71
2021/04/22 09:41:40;;;;;;;1.27;1.17;;;25.00;53.40;;;;;;5033953;28;20075;-72
2021/04/22 09:44:09;;;;;;;1.88;1.77;;;26.50;53.10;;;;;;5033781;28;20487;-72
2021/04/22 09:46:41;;;;;;;3.38;1.50;;;27.40;49.20;;;;;;5033117;28;20021;-72
2021/04/22 09:49:12;;;;;;;2.65;1.50;;;27.90;47.30;;;;;;5033610;28;20030;-72
2021/04/22 09:51:39;;;;;;;1.70;1.60;;;27.10;47.60;;;;;;5033492;28;20057;-72
2021/04/22 09:54:18;;;;;;;2.20;1.27;;;27.30;49.30;;;;;;5033181;28;20075;-72
2021/04/22 09:56:55;;;;;;;1.98;1.77;;;27.90;48.70;;;;;;5033761;28;20026;-72
2021/04/22 09:59:23;;;;;;;4.68;1.63;;;27.00;47.60;;;;;;5033650;28;20056;-72
2021/04/22 10:02:01;;;;;;;1.58;1.48;;;28.00;47.60;;;;;;5033610;28;20525;-72
2021/04/22 10:04:38;;;;;;;1.92;1.75;;;28.20;46.40;;;;;;5033328;28;20025;-72
2021/04/22 10:07:16;;;;;;;1.30;1.30;;;28.20;46.70;;;;;;5033400;28;20036;-72
2021/04/22 10:09:42;;;;;;;1.55;1.45;;;27.40;46.30;;;;;;5033000;28;20022;-72
2021/04/22 10:12:31;;;;;;;5.53;1.85;;;28.50;45.80;;;;;;5033402;28;20456;-72
2021/04/22 10:15:08;;;;;;;2.45;1.75;;;27.80;45.80;;;;;;5033254;28;20029;-72
2021/04/22 10:17:35;;;;;;;8.95;1.80;;;28.40;46.50;;;;;;5033082;28;20063;-72
2021/04/22 10:20:10;;;;;;;6.13;1.80;;;28.60;44.70;;;;;;5033143;28;20064;-72
2021/04/22 10:22:38;;;;;;;1.90;1.63;;;29.40;45.40;;;;;;5032676;28;20534;-72
2021/04/22 10:25:07;;;;;;;2.25;1.70;;;29.80;44.90;;;;;;5033088;28;20025;-72
2021/04/22 10:27:34;;;;;;;2.42;1.65;;;28.80;45.50;;;;;;5032872;28;20108;-72
2021/04/22 10:30:01;;;;;;;1.80;1.70;;;27.50;46.50;;;;;;5033126;28;20030;-72
2021/04/22 10:32:28;;;;;;;1.70;1.60;;;28.50;46.80;;;;;;5032918;28;20083;-72
2021/04/22 10:34:55;;;;;;;4.55;1.73;;;28.60;44.60;;;;;;5033209;28;20021;-72
2021/04/22 10:37:22;;;;;;;1.63;1.52;;;30.00;44.40;;;;;;5032659;28;20044;-72
2021/04/22 10:39:49;;;;;;;1.63;1.52;;;29.70;44.90;;;;;;5032815;28;20029;-72
2021/04/22 10:42:18;;;;;;;3.80;2.03;;;29.90;44.70;;;;;;5032884;28;20029;-72
2021/04/22 10:44:49;;;;;;;1.92;1.83;;;28.00;44.40;;;;;;5032919;28;20479;-72
2021/04/22 10:47:19;;;;;;;1.83;1.73;;;29.60;44.50;;;;;;5032736;28;20038;-72
2021/04/22 10:49:45;;;;;;;2.08;1.98;;;30.20;43.40;;;;;;5032595;28;20554;-72
2021/04/22 10:52:13;;;;;;;2.03;1.90;;;28.70;44.90;;;;;;5032562;28;20061;-72
2021/04/22 10:54:40;;;;;;;2.40;2.20;;;28.60;44.20;;;;;;5032518;28;20486;-72
2021/04/22 10:57:09;;;;;;;2.05;1.85;;;30.40;44.60;;;;;;5031712;28;20402;-72
2021/04/22 10:59:36;;;;;;;1.83;1.70;;;30.30;42.90;;;;;;5032386;28;20037;-72
2021/04/22 11:02:17;;;;;;;2.08;1.50;;;29.60;43.10;;;;;;5032674;28;20041;-72
2021/04/22 11:04:44;;;;;;;1.95;1.75;;;30.50;43.60;;;;;;5032581;28;20095;-72
2021/04/22 11:07:15;;;;;;;2.00;1.90;;;29.10;43.30;;;;;;5032118;28;20034;-72
2021/04/22 11:09:41;;;;;;;1.80;1.70;;;29.30;44.70;;;;;;5032314;28;20030;-72
2021/04/22 11:12:08;;;;;;;1.70;1.70;;;30.70;41.40;;;;;;5032405;28;20095;-72
2021/04/22 11:14:55;;;;;;;2.38;1.70;;;30.30;42.80;;;;;;5032216;28;20037;-72
2021/04/22 11:17:37;;;;;;;3.83;2.00;;;30.70;41.70;;;;;;5032458;28;20034;-72
2021/04/22 11:20:20;;;;;;;2.17;1.92;;;31.30;41.10;;;;;;5032555;28;20037;-72
2021/04/22 11:22:46;;;;;;;1.50;1.50;;;30.80;41.60;;;;;;5031911;28;20026;-72
2021/04/22 11:25:22;;;;;;;4.55;2.00;;;31.30;40.40;;;;;;5032364;28;20487;-72
2021/04/22 11:27:52;;;;;;;1.73;1.63;;;32.10;41.20;;;;;;5030667;28;20038;-72
2021/04/22 11:30:32;;;;;;;1.85;1.75;;;31.50;38.80;;;;;;5032351;28;20032;-72
2021/04/22 11:32:59;;;;;;;1.60;1.60;;;31.30;40.90;;;;;;5032196;28;20056;-72
2021/04/22 11:35:26;;;;;;;2.13;2.03;;;31.40;39.80;;;;;;5031911;28;20026;-72
2021/04/22 11:38:11;;;;;;;2.10;1.90;;;31.30;41.10;;;;;;5030792;28;20479;-72
2021/04/22 11:40:46;;;;;;;1.70;1.60;;;31.70;40.60;;;;;;5032204;28;20399;-72
2021/04/22 11:43:23;;;;;;;2.88;1.73;;;31.50;40.30;;;;;;5032151;28;20038;-72
2021/04/22 11:45:51;;;;;;;4.35;1.60;;;31.70;40.40;;;;;;5032018;28;20026;-72
2021/04/22 11:48:19;;;;;;;5.50;1.70;;;30.80;40.30;;;;;;5032130;28;20041;-72
2021/04/22 11:50:51;;;;;;;2.33;1.77;;;31.70;39.70;;;;;;5031563;28;20613;-72
2021/04/22 11:53:37;;;;;;;2.00;1.80;;;32.80;39.10;;;;;;5032307;28;20026;-72
2021/04/22 11:56:05;;;;;;;2.10;1.88;;;33.40;37.10;;;;;;5031917;28;20044;-72
2021/04/22 11:58:33;;;;;;;2.10;2.00;;;34.70;36.90;;;;;;5032181;28;20044;-72
2021/04/22 12:01:03;;;;;;;2.05;1.95;;;34.10;37.90;;;;;;5031682;28;20069;-72
2021/04/22 12:03:39;;;;;;;2.10;1.90;;;33.10;37.70;;;;;;5032075;28;20038;-72
2021/04/22 12:06:10;;;;;;;4.47;2.95;;;34.90;36.90;;;;;;5031688;28;20041;-72
2021/04/22 12:08:39;;;;;;;2.20;1.77;;;33.50;38.50;;;;;;5032685;28;20124;-72
2021/04/22 12:11:23;;;;;;;1.88;1.77;;;34.30;38.20;;;;;;5035686;28;20030;-72
2021/04/22 12:13:50;;;;;;;2.00;1.90;;;33.80;37.10;;;;;;5035521;28;20033;-72
2021/04/22 12:16:17;;;;;;;1.90;1.80;;;33.30;37.50;;;;;;5035831;28;20083;-72
2021/04/22 12:18:46;;;;;;;2.40;2.30;;;32.30;37.00;;;;;;5035245;28;20025;-72
2021/04/22 12:21:20;;;;;;;1.83;1.80;;;33.80;38.30;;;;;;5035265;28;20032;-72
2021/04/22 12:23:49;;;;;;;1.80;1.70;;;33.70;36.80;;;;;;5035523;28;20033;-72
2021/04/22 12:26:20;;;;;;;1.25;1.25;;;33.00;35.80;;;;;;5035608;28;20451;-72
2021/04/22 12:28:58;;;;;;;2.10;1.73;;;28.70;39.00;;;;;;5035342;28;20025;-72
2021/04/22 12:32:00;;;;;;;1.63;1.52;;;29.70;41.60;;;;;;5035467;28;20060;-72
2021/04/22 12:34:32;;;;;;;9.50;2.55;;;34.20;37.50;;;;;;5034954;28;20037;-72
2021/04/22 12:37:09;;;;;;;1.58;1.52;;;34.40;37.10;;;;;;5035071;28;20021;-72
2021/04/22 12:39:48;;;;;;;3.33;1.83;;;32.90;37.10;;;;;;5035332;28;20387;-72
2021/04/22 12:42:24;;;;;;;2.30;1.20;;;27.80;40.60;;;;;;5035133;28;20029;-72
2021/04/22 12:44:59;;;;;;;1.60;1.50;;;26.00;44.30;;;;;;5035066;28;20073;-72
2021/04/22 12:47:51;;;;;;;2.03;1.92;;;26.10;44.30;;;;;;5035158;28;20037;-72
2021/04/22 12:50:26;;;;;;;4.88;2.40;;;29.80;41.70;;;;;;5035189;28;20022;-72
2021/04/22 12:53:03;;;;;;;1.90;1.80;;;31.50;40.30;;;;;;5034801;28;20021;-72
2021/04/22 12:55:30;;;;;;;1.67;1.58;;;31.90;39.70;;;;;;5035124;28;20036;-72